Time;durP1;ratioP1;P1;durP2;ratioP2;P2;SDS_P1;SDS_P2;PMS_P1;PMS_P2;Temp;Humidity;BMP_temperature;BMP_pressure;BME280_temperature;BME280_humidity;BME280_pressure;Samples;Min_cycle;Max_cycle;Signal;HPM_P1;HPM_P2
2024/01/21 00:02:12;;;;;;;16.48;10.45;;;;;;;;;;5113596;28;20074;-80
2024/01/21 00:04:38;;;;;;;16.25;9.85;;;;;;;;;;5114582;28;20044;-80
2024/01/21 00:07:04;;;;;;;15.85;9.75;;;;;;;;;;5115245;28;20059;-80
2024/01/21 00:09:30;;;;;;;16.50;10.05;;;;;;;;;;5115931;28;20048;-79
2024/01/21 00:11:56;;;;;;;17.00;9.75;;;;;;;;;;5116374;28;20044;-80
2024/01/21 00:14:22;;;;;;;16.98;9.70;;;;;;;;;;5115297;28;20088;-80
2024/01/21 00:16:48;;;;;;;17.85;9.68;;;;;;;;;;5112461;28;20056;-80
2024/01/21 00:19:14;;;;;;;19.98;9.38;;;;;;;;;;5112119;28;20052;-80
2024/01/21 00:21:40;;;;;;;16.17;10.23;;;;;;;;;;5112345;28;20506;-79
2024/01/21 00:24:06;;;;;;;17.35;9.88;;;;;;;;;;5111777;28;20047;-80
2024/01/21 00:26:32;;;;;;;17.98;8.85;;;;;;;;;;5116976;28;20044;-80
2024/01/21 00:29:00;;;;;;;16.00;9.98;;;;;;;;;;5117113;28;20059;-80
2024/01/21 00:31:27;;;;;;;15.77;9.25;;;;;;;;;;5121227;28;20119;-80
2024/01/21 00:33:53;;;;;;;15.70;9.23;;;;;;;;;;5104304;28;20056;-80
2024/01/21 00:36:19;;;;;;;14.43;9.00;;;;;;;;;;5102998;28;20097;-80
2024/01/21 00:38:45;;;;;;;15.13;8.68;;;;;;;;;;5120118;28;20047;-80
2024/01/21 00:41:18;;;;;;;15.30;8.48;;;;;;;;;;5119990;28;20040;-79
2024/01/21 00:43:44;;;;;;;16.17;9.02;;;;;;;;;;5106379;28;20048;-80
2024/01/21 00:46:10;;;;;;;15.80;8.57;;;;;;;;;;5118558;28;20119;-80
2024/01/21 00:48:36;;;;;;;14.40;8.75;;;;;;;;;;5105879;28;20059;-80
2024/01/21 00:51:02;;;;;;;16.33;8.65;;;;;;;;;;5100013;28;20043;-80
2024/01/21 00:53:28;;;;;;;15.60;8.30;;;;;;;;;;5100216;28;20055;-80
2024/01/21 00:55:54;;;;;;;16.33;8.13;;;;;;;;;;5099850;28;20231;-79
2024/01/21 00:58:20;;;;;;;15.05;8.20;;;;;;;;;;5107637;28;20101;-80
2024/01/21 01:00:46;;;;;;;17.17;8.52;;;;;;;;;;5109151;28;20114;-80
2024/01/21 01:03:12;;;;;;;14.43;8.23;;;;;;;;;;5102065;28;20070;-80
2024/01/21 01:05:38;;;;;;;13.52;7.82;;;;;;;;;;5101056;28;20097;-79
2024/01/21 01:08:04;;;;;;;12.48;7.32;;;;;;;;;;5118611;28;20040;-80
2024/01/21 01:10:30;;;;;;;13.68;7.03;;;;;;;;;;5117830;28;20047;-79
2024/01/21 01:12:58;;;;;;;13.20;7.78;;;;;;;;;;5118500;28;20036;-79
2024/01/21 01:15:24;;;;;;;13.48;7.53;;;;;;;;;;5101984;28;20056;-80
2024/01/21 01:17:53;;;;;;;13.82;6.93;;;;;;;;;;5114863;28;20047;-80
2024/01/21 01:20:19;;;;;;;13.18;7.75;;;;;;;;;;5112206;28;20122;-80
2024/01/21 01:22:45;;;;;;;11.45;6.97;;;;;;;;;;5100676;28;20044;-79
2024/01/21 01:25:12;;;;;;;12.35;7.15;;;;;;;;;;5111619;28;20048;-79
2024/01/21 01:27:38;;;;;;;13.02;6.85;;;;;;;;;;5116414;28;20531;-80
2024/01/21 01:30:05;;;;;;;11.82;6.13;;;;;;;;;;5117051;28;20074;-79
2024/01/21 01:32:31;;;;;;;11.32;6.78;;;;;;;;;;5109826;28;20036;-80
2024/01/21 01:34:57;;;;;;;11.25;5.70;;;;;;;;;;5111386;28;20044;-80
2024/01/21 01:37:23;;;;;;;15.73;6.35;;;;;;;;;;5098435;28;20044;-79
2024/01/21 01:39:49;;;;;;;10.65;6.10;;;;;;;;;;5108301;28;20116;-79
2024/01/21 01:42:16;;;;;;;11.32;6.47;;;;;;;;;;5099271;28;20044;-80
2024/01/21 01:44:42;;;;;;;11.38;6.20;;;;;;;;;;5099262;28;20056;-79
2024/01/21 01:47:11;;;;;;;11.05;5.53;;;;;;;;;;5105387;28;20071;-79
2024/01/21 01:49:39;;;;;;;10.55;5.75;;;;;;;;;;5123315;28;20042;-79
2024/01/21 01:52:06;;;;;;;10.68;5.40;;;;;;;;;;5112134;28;20097;-79
2024/01/21 01:54:34;;;;;;;10.77;5.72;;;;;;;;;;5101956;28;20048;-80
2024/01/21 01:57:00;;;;;;;11.25;5.80;;;;;;;;;;5105402;28;20044;-80
2024/01/21 01:59:27;;;;;;;9.85;5.63;;;;;;;;;;5112846;28;20051;-79
2024/01/21 02:01:53;;;;;;;9.43;5.63;;;;;;;;;;5101763;28;20044;-80
2024/01/21 02:04:19;;;;;;;10.38;5.28;;;;;;;;;;5103156;28;20524;-80
2024/01/21 02:06:45;;;;;;;10.35;5.35;;;;;;;;;;5099242;28;20185;-80
2024/01/21 02:09:11;;;;;;;10.48;5.60;;;;;;;;;;5081360;28;20047;-80
2024/01/21 02:11:38;;;;;;;11.00;5.35;;;;;;;;;;5099366;28;20048;-80
2024/01/21 02:14:04;;;;;;;10.25;5.10;;;;;;;;;;5114832;28;20402;-80
2024/01/21 02:16:30;;;;;;;9.60;5.25;;;;;;;;;;5110724;28;20054;-79
2024/01/21 02:18:56;;;;;;;11.25;5.50;;;;;;;;;;5098363;28;20043;-80
2024/01/21 02:21:22;;;;;;;10.43;5.53;;;;;;;;;;5103930;28;20040;-79
2024/01/21 02:23:48;;;;;;;9.07;5.38;;;;;;;;;;5098745;28;20047;-79
2024/01/21 02:26:14;;;;;;;10.30;4.43;;;;;;;;;;5109970;28;20047;-80
2024/01/21 02:28:40;;;;;;;10.85;4.43;;;;;;;;;;5116335;28;20131;-80
2024/01/21 02:31:06;;;;;;;10.80;4.85;;;;;;;;;;5117261;28;20040;-80
2024/01/21 02:33:32;;;;;;;8.60;4.15;;;;;;;;;;5103374;28;20051;-79
2024/01/21 02:35:58;;;;;;;8.25;4.30;;;;;;;;;;5098808;28;20056;-79
2024/01/21 02:38:24;;;;;;;8.77;4.75;;;;;;;;;;5114363;28;20048;-79
2024/01/21 02:40:50;;;;;;;9.23;4.47;;;;;;;;;;5103886;28;20062;-79
2024/01/21 02:43:17;;;;;;;9.65;4.10;;;;;;;;;;5109456;28;20408;-79
2024/01/21 02:45:43;;;;;;;8.32;4.28;;;;;;;;;;5114235;28;20131;-79
2024/01/21 02:48:09;;;;;;;9.10;4.00;;;;;;;;;;5109485;28;20473;-79
2024/01/21 02:50:35;;;;;;;8.35;3.88;;;;;;;;;;5097483;28;20051;-79
2024/01/21 02:53:01;;;;;;;8.65;4.10;;;;;;;;;;5101078;28;20044;-80
2024/01/21 02:55:27;;;;;;;7.43;3.55;;;;;;;;;;5098041;28;20052;-80
2024/01/21 02:57:53;;;;;;;7.45;3.85;;;;;;;;;;5099777;28;20558;-80
2024/01/21 03:00:19;;;;;;;8.77;3.97;;;;;;;;;;5101197;28;20497;-79
2024/01/21 03:02:46;;;;;;;10.55;3.75;;;;;;;;;;5101648;28;20048;-79
2024/01/21 03:05:13;;;;;;;7.25;4.07;;;;;;;;;;5111350;28;20094;-80
2024/01/21 03:07:39;;;;;;;6.93;3.65;;;;;;;;;;5101614;28;20488;-80
2024/01/21 03:10:05;;;;;;;8.05;3.72;;;;;;;;;;5101153;28;20099;-80
2024/01/21 03:12:31;;;;;;;8.88;3.67;;;;;;;;;;5115750;28;20043;-79
2024/01/21 03:14:57;;;;;;;7.95;3.60;;;;;;;;;;5105026;28;20036;-80
2024/01/21 03:17:23;;;;;;;8.73;3.42;;;;;;;;;;5104526;28;20100;-79
2024/01/21 03:19:49;;;;;;;7.13;3.10;;;;;;;;;;5121035;28;20051;-80
2024/01/21 03:22:15;;;;;;;7.35;3.45;;;;;;;;;;5112389;28;20558;-80
2024/01/21 03:24:41;;;;;;;6.47;3.00;;;;;;;;;;5104948;28;20040;-80
2024/01/21 03:27:08;;;;;;;8.13;3.20;;;;;;;;;;5115203;28;20043;-79
2024/01/21 03:29:34;;;;;;;5.68;2.60;;;;;;;;;;5113769;28;20177;-79
2024/01/21 03:32:00;;;;;;;6.05;2.75;;;;;;;;;;5104984;28;20048;-79
2024/01/21 03:34:26;;;;;;;7.93;3.22;;;;;;;;;;5112130;28;20047;-79
2024/01/21 03:36:52;;;;;;;7.57;3.92;;;;;;;;;;5118000;28;20043;-80
2024/01/21 03:39:19;;;;;;;6.90;3.13;;;;;;;;;;5119677;28;20055;-79
2024/01/21 03:41:45;;;;;;;7.18;2.67;;;;;;;;;;5110143;28;20051;-80
2024/01/21 03:44:11;;;;;;;6.25;2.67;;;;;;;;;;5102707;28;20052;-79
2024/01/21 03:46:37;;;;;;;5.50;2.40;;;;;;;;;;5112281;28;20040;-79
2024/01/21 03:49:03;;;;;;;6.80;2.85;;;;;;;;;;5104521;28;20055;-80
2024/01/21 03:51:29;;;;;;;5.80;2.28;;;;;;;;;;5116382;28;20044;-79
2024/01/21 03:53:55;;;;;;;6.25;2.65;;;;;;;;;;5108604;28;20042;-79
2024/01/21 03:56:21;;;;;;;5.93;2.50;;;;;;;;;;5099142;28;20505;-79
2024/01/21 03:58:48;;;;;;;6.53;2.80;;;;;;;;;;5098991;28;20059;-78
2024/01/21 04:01:14;;;;;;;5.75;2.47;;;;;;;;;;5099459;28;20075;-80
2024/01/21 04:03:40;;;;;;;5.32;2.50;;;;;;;;;;5099055;28;20075;-80
2024/01/21 04:06:06;;;;;;;7.03;2.40;;;;;;;;;;5098621;28;20044;-79
2024/01/21 04:08:33;;;;;;;5.53;2.15;;;;;;;;;;5097313;28;20044;-79
2024/01/21 04:10:59;;;;;;;5.45;2.08;;;;;;;;;;5105540;28;20477;-79
2024/01/21 04:13:25;;;;;;;7.15;2.58;;;;;;;;;;5118600;28;20074;-79
2024/01/21 04:15:51;;;;;;;7.18;2.03;;;;;;;;;;5111733;28;20039;-80
2024/01/21 04:18:18;;;;;;;5.30;2.10;;;;;;;;;;5100456;28;20127;-79
2024/01/21 04:20:44;;;;;;;5.85;2.08;;;;;;;;;;5095507;28;20048;-79
2024/01/21 04:23:10;;;;;;;5.60;1.80;;;;;;;;;;5096962;28;20039;-79
2024/01/21 04:25:36;;;;;;;5.15;2.20;;;;;;;;;;5096970;28;20555;-79
2024/01/21 04:28:02;;;;;;;4.30;2.00;;;;;;;;;;5110915;28;20497;-79
2024/01/21 04:30:29;;;;;;;5.75;1.75;;;;;;;;;;5105435;28;20050;-79
2024/01/21 04:32:55;;;;;;;5.53;2.00;;;;;;;;;;5116504;28;20046;-79
2024/01/21 04:35:21;;;;;;;4.63;1.90;;;;;;;;;;5110160;28;20051;-79
2024/01/21 04:37:47;;;;;;;6.22;2.03;;;;;;;;;;5096810;28;20052;-79
2024/01/21 04:40:13;;;;;;;4.43;1.73;;;;;;;;;;5106870;28;20412;-79
2024/01/21 04:42:39;;;;;;;4.50;1.73;;;;;;;;;;5116951;28;20130;-80
2024/01/21 04:45:06;;;;;;;4.85;1.70;;;;;;;;;;5115531;28;20040;-79
2024/01/21 04:47:32;;;;;;;4.55;1.80;;;;;;;;;;5099699;28;20115;-79
2024/01/21 04:49:58;;;;;;;5.75;2.00;;;;;;;;;;5100610;28;20101;-80
2024/01/21 04:52:27;;;;;;;5.35;1.63;;;;;;;;;;5099398;28;20040;-80
2024/01/21 04:54:53;;;;;;;5.28;1.90;;;;;;;;;;5115793;28;20127;-79
2024/01/21 04:57:19;;;;;;;6.38;1.80;;;;;;;;;;5101353;28;20040;-80
2024/01/21 04:59:45;;;;;;;4.97;1.70;;;;;;;;;;5116624;28;20043;-80
2024/01/21 05:02:11;;;;;;;5.45;1.85;;;;;;;;;;5112864;28;20062;-79
2024/01/21 05:04:37;;;;;;;4.65;1.75;;;;;;;;;;5116657;28;20059;-79
2024/01/21 05:07:04;;;;;;;4.32;1.80;;;;;;;;;;5114715;28;20044;-79
2024/01/21 05:09:30;;;;;;;4.80;1.83;;;;;;;;;;5118074;28;20062;-79
2024/01/21 05:11:56;;;;;;;7.50;1.70;;;;;;;;;;5105774;28;20048;-80
2024/01/21 05:14:22;;;;;;;5.75;2.00;;;;;;;;;;5098161;28;20047;-79
2024/01/21 05:16:48;;;;;;;4.93;1.85;;;;;;;;;;5099160;28;20044;-79
2024/01/21 05:19:15;;;;;;;5.40;1.95;;;;;;;;;;5098783;28;20048;-78
2024/01/21 05:21:41;;;;;;;3.75;1.60;;;;;;;;;;5107454;28;20101;-79
2024/01/21 05:24:07;;;;;;;6.93;1.90;;;;;;;;;;5117649;28;20036;-79
2024/01/21 05:26:33;;;;;;;4.85;1.77;;;;;;;;;;5108297;28;20055;-79
2024/01/21 05:29:00;;;;;;;5.00;1.90;;;;;;;;;;5111489;28;20100;-79
2024/01/21 05:31:31;;;;;;;4.40;1.65;;;;;;;;;;5112455;28;20067;-79
2024/01/21 05:33:58;;;;;;;4.95;1.90;;;;;;;;;;5096911;28;20413;-79
2024/01/21 05:36:24;;;;;;;5.13;1.80;;;;;;;;;;5097578;28;20112;-79
2024/01/21 05:38:50;;;;;;;5.25;1.80;;;;;;;;;;5102800;28;20047;-79
2024/01/21 05:41:17;;;;;;;4.53;1.80;;;;;;;;;;5105820;28;20036;-79
2024/01/21 05:43:43;;;;;;;4.95;1.90;;;;;;;;;;5098407;28;20044;-79
2024/01/21 05:46:09;;;;;;;5.15;1.98;;;;;;;;;;5116902;28;20036;-79
2024/01/21 05:48:35;;;;;;;3.92;1.60;;;;;;;;;;5117475;28;20092;-80
2024/01/21 05:51:01;;;;;;;4.93;2.10;;;;;;;;;;5116865;28;20044;-79
2024/01/21 05:53:27;;;;;;;4.72;1.92;;;;;;;;;;5112666;28;20044;-80
2024/01/21 05:55:53;;;;;;;5.00;1.80;;;;;;;;;;5096165;28;20044;-79
2024/01/21 05:58:19;;;;;;;6.28;2.05;;;;;;;;;;5096498;28;20044;-79
2024/01/21 06:00:45;;;;;;;5.57;2.00;;;;;;;;;;5110183;28;20047;-79
2024/01/21 06:03:11;;;;;;;5.10;2.00;;;;;;;;;;5104638;28;20044;-79
2024/01/21 06:05:37;;;;;;;5.20;1.80;;;;;;;;;;5108690;28;20039;-80
2024/01/21 06:08:03;;;;;;;5.40;1.92;;;;;;;;;;5110089;28;20047;-79
2024/01/21 06:10:29;;;;;;;6.95;1.88;;;;;;;;;;5098375;28;21024;-79
2024/01/21 06:12:55;;;;;;;8.02;1.95;;;;;;;;;;5109532;28;20485;-79
2024/01/21 06:15:21;;;;;;;6.25;2.20;;;;;;;;;;5107179;28;20485;-79
2024/01/21 06:17:51;;;;;;;4.90;1.90;;;;;;;;;;5113344;28;20519;-80
2024/01/21 06:20:17;;;;;;;6.93;2.15;;;;;;;;;;5106906;28;20148;-79
2024/01/21 06:22:43;;;;;;;7.50;2.28;;;;;;;;;;5102349;28;20096;-79
2024/01/21 06:25:09;;;;;;;5.50;2.40;;;;;;;;;;5112500;28;20054;-79
2024/01/21 06:27:35;;;;;;;6.20;2.38;;;;;;;;;;5101737;28;20059;-79
2024/01/21 06:30:11;;;;;;;6.25;2.65;;;;;;;;;;5115909;28;20484;-80
2024/01/21 06:32:37;;;;;;;6.07;2.67;;;;;;;;;;5115813;28;20043;-80
2024/01/21 06:35:03;;;;;;;8.82;2.78;;;;;;;;;;5104685;28;20048;-79
2024/01/21 06:37:29;;;;;;;6.60;2.55;;;;;;;;;;5105376;28;20040;-80
2024/01/21 06:39:55;;;;;;;5.50;2.60;;;;;;;;;;5117179;28;20040;-79
2024/01/21 06:42:21;;;;;;;6.45;2.85;;;;;;;;;;5120956;28;20091;-79
2024/01/21 06:44:47;;;;;;;7.45;2.70;;;;;;;;;;5113420;28;20085;-79
2024/01/21 06:47:13;;;;;;;5.95;2.75;;;;;;;;;;5120550;28;20040;-79
2024/01/21 06:49:39;;;;;;;7.45;2.90;;;;;;;;;;5112770;28;20055;-78
2024/01/21 06:52:07;;;;;;;6.90;3.08;;;;;;;;;;5119199;28;20073;-79
2024/01/21 06:54:34;;;;;;;6.90;3.08;;;;;;;;;;5117325;28;20401;-79
2024/01/21 06:57:00;;;;;;;7.97;3.35;;;;;;;;;;5102577;28;20048;-79
2024/01/21 06:59:26;;;;;;;6.50;3.15;;;;;;;;;;5099449;28;20047;-79
2024/01/21 07:01:52;;;;;;;8.32;3.60;;;;;;;;;;5106966;28;20040;-79
2024/01/21 07:04:18;;;;;;;8.25;3.38;;;;;;;;;;5107234;28;20485;-79
2024/01/21 07:06:45;;;;;;;8.13;3.83;;;;;;;;;;5113766;28;20048;-78
2024/01/21 07:09:11;;;;;;;8.38;3.97;;;;;;;;;;5121798;28;20044;-79
2024/01/21 07:11:43;;;;;;;9.35;4.35;;;;;;;;;;5122312;28;20048;-80
2024/01/21 07:14:09;;;;;;;7.78;3.60;;;;;;;;;;5105044;28;20047;-80
2024/01/21 07:16:35;;;;;;;9.82;3.97;;;;;;;;;;5107084;28;20493;-79
2024/01/21 07:19:02;;;;;;;8.32;3.70;;;;;;;;;;5118153;28;20118;-80
2024/01/21 07:21:29;;;;;;;7.55;3.92;;;;;;;;;;5108773;28;20044;-80
2024/01/21 07:23:55;;;;;;;9.02;4.07;;;;;;;;;;5109365;28;20098;-80
2024/01/21 07:26:23;;;;;;;9.35;4.35;;;;;;;;;;5106913;28;20864;-80
2024/01/21 07:28:49;;;;;;;10.20;5.07;;;;;;;;;;5109865;28;20040;-78
2024/01/21 07:31:15;;;;;;;8.70;4.43;;;;;;;;;;5109664;28;20086;-79
2024/01/21 07:33:41;;;;;;;9.88;5.00;;;;;;;;;;5114138;28;20382;-80
2024/01/21 07:36:08;;;;;;;9.15;5.05;;;;;;;;;;5121624;28;20043;-80
2024/01/21 07:38:34;;;;;;;8.38;4.45;;;;;;;;;;5106786;28;20634;-79
2024/01/21 07:41:00;;;;;;;11.07;5.38;;;;;;;;;;5103581;28;20043;-80
2024/01/21 07:43:26;;;;;;;9.60;5.18;;;;;;;;;;5098865;28;20116;-79
2024/01/21 07:45:52;;;;;;;10.23;5.65;;;;;;;;;;5101009;28;20366;-79
2024/01/21 07:48:18;;;;;;;11.25;5.20;;;;;;;;;;5098951;28;20044;-79
2024/01/21 07:50:45;;;;;;;10.27;5.38;;;;;;;;;;5099539;28;20108;-80
2024/01/21 07:53:11;;;;;;;8.60;4.93;;;;;;;;;;5119878;28;20135;-79
2024/01/21 07:55:37;;;;;;;10.13;5.35;;;;;;;;;;5120207;28;20131;-79
2024/01/21 07:58:03;;;;;;;9.52;5.45;;;;;;;;;;5119180;28;20075;-79
2024/01/21 08:00:29;;;;;;;8.95;5.10;;;;;;;;;;5118395;28;20051;-79
2024/01/21 08:02:55;;;;;;;11.95;5.70;;;;;;;;;;5113900;28;20078;-79
2024/01/21 08:05:22;;;;;;;9.55;5.60;;;;;;;;;;5101574;28;20047;-79
2024/01/21 08:07:48;;;;;;;9.88;5.22;;;;;;;;;;5098378;28;20036;-79
2024/01/21 08:10:14;;;;;;;11.70;5.78;;;;;;;;;;5116483;28;20131;-79
2024/01/21 08:12:40;;;;;;;10.13;5.68;;;;;;;;;;5115484;28;20559;-80
2024/01/21 08:15:06;;;;;;;11.68;6.20;;;;;;;;;;5105276;28;20373;-79
2024/01/21 08:17:32;;;;;;;10.13;5.72;;;;;;;;;;5112774;28;20516;-79
2024/01/21 08:19:58;;;;;;;10.30;5.68;;;;;;;;;;5118747;28;20083;-79
2024/01/21 08:22:24;;;;;;;10.18;5.43;;;;;;;;;;5115439;28;20051;-80
2024/01/21 08:24:54;;;;;;;11.50;5.82;;;;;;;;;;5101508;28;20050;-80
2024/01/21 08:27:21;;;;;;;9.77;5.63;;;;;;;;;;5103513;28;20055;-80
2024/01/21 08:29:47;;;;;;;8.98;5.38;;;;;;;;;;5099792;28;20055;-80
2024/01/21 08:32:13;;;;;;;11.35;6.10;;;;;;;;;;5104391;28;20114;-80
2024/01/21 08:34:39;;;;;;;11.48;5.75;;;;;;;;;;5108601;28;20052;-80
2024/01/21 08:37:05;;;;;;;10.68;5.82;;;;;;;;;;5110077;28;20044;-80
2024/01/21 08:39:31;;;;;;;11.75;6.07;;;;;;;;;;5111919;28;20054;-80
2024/01/21 08:41:58;;;;;;;10.27;5.88;;;;;;;;;;5112884;28;20044;-80
2024/01/21 08:44:24;;;;;;;11.85;5.88;;;;;;;;;;5115812;28;20044;-80
2024/01/21 08:46:50;;;;;;;12.15;5.40;;;;;;;;;;5101507;27;20036;-80
2024/01/21 08:49:16;;;;;;;11.07;6.20;;;;;;;;;;5119495;28;20043;-80
2024/01/21 08:51:43;;;;;;;11.18;5.57;;;;;;;;;;5117413;28;20043;-80
2024/01/21 08:54:09;;;;;;;10.15;5.53;;;;;;;;;;5105642;28;20051;-80
2024/01/21 08:56:35;;;;;;;10.75;5.95;;;;;;;;;;5113747;28;20048;-80
2024/01/21 08:59:01;;;;;;;11.27;6.10;;;;;;;;;;5118854;28;20051;-80
2024/01/21 09:01:27;;;;;;;11.73;5.90;;;;;;;;;;5115943;28;20040;-80
2024/01/21 09:03:53;;;;;;;10.63;5.90;;;;;;;;;;5112912;28;20498;-80
2024/01/21 09:06:19;;;;;;;11.20;5.80;;;;;;;;;;5100152;28;20048;-80
2024/01/21 09:08:45;;;;;;;10.52;5.85;;;;;;;;;;5107992;28;20047;-81
2024/01/21 09:11:12;;;;;;;9.70;5.40;;;;;;;;;;5114567;28;20051;-80
2024/01/21 09:13:38;;;;;;;12.73;6.47;;;;;;;;;;5100248;28;20042;-80
2024/01/21 09:16:05;;;;;;;10.30;5.82;;;;;;;;;;5098198;28;20105;-80
2024/01/21 09:18:31;;;;;;;9.73;6.20;;;;;;;;;;5098642;28;20044;-81
2024/01/21 09:20:58;;;;;;;10.43;6.10;;;;;;;;;;5109142;28;20040;-81
2024/01/21 09:23:25;;;;;;;10.27;6.10;;;;;;;;;;5110497;28;20074;-80
2024/01/21 09:25:51;;;;;;;11.13;6.00;;;;;;;;;;5103110;28;20040;-80
2024/01/21 09:28:18;;;;;;;10.18;5.93;;;;;;;;;;5111275;28;20043;-81
2024/01/21 09:30:44;;;;;;;9.82;5.88;;;;;;;;;;5109848;28;20039;-80
2024/01/21 09:33:10;;;;;;;11.23;6.18;;;;;;;;;;5110570;28;20073;-81
2024/01/21 09:35:36;;;;;;;10.40;5.72;;;;;;;;;;5110476;28;20043;-81
2024/01/21 09:38:02;;;;;;;10.63;5.90;;;;;;;;;;5110404;28;20431;-81
2024/01/21 09:40:28;;;;;;;9.68;6.05;;;;;;;;;;5111876;28;20059;-81
2024/01/21 09:42:55;;;;;;;10.98;6.30;;;;;;;;;;5108675;28;20035;-81
2024/01/21 09:45:22;;;;;;;13.68;6.47;;;;;;;;;;5108458;28;20060;-81
2024/01/21 09:47:49;;;;;;;14.35;6.40;;;;;;;;;;5108662;28;20047;-81
2024/01/21 09:50:15;;;;;;;11.02;6.40;;;;;;;;;;5108631;28;20487;-81
2024/01/21 09:52:41;;;;;;;11.90;6.50;;;;;;;;;;5111432;28;20044;-81
2024/01/21 09:55:07;;;;;;;11.95;6.00;;;;;;;;;;5111489;28;20104;-81
2024/01/21 09:57:36;;;;;;;10.23;6.32;;;;;;;;;;5102145;28;20047;-81
2024/01/21 10:00:03;;;;;;;10.55;6.55;;;;;;;;;;5106848;28;20043;-81
2024/01/21 10:02:30;;;;;;;10.65;5.70;;;;;;;;;;5108265;28;20099;-82
2024/01/21 10:04:56;;;;;;;11.52;6.47;;;;;;;;;;5108656;28;20043;-81
2024/01/21 10:07:23;;;;;;;10.90;6.28;;;;;;;;;;5106527;28;20052;-81
2024/01/21 10:09:57;;;;;;;9.27;5.75;;;;;;;;;;5107715;28;20043;-82
2024/01/21 10:12:24;;;;;;;12.10;6.15;;;;;;;;;;5106362;28;20047;-81
2024/01/21 10:14:50;;;;;;;8.88;5.65;;;;;;;;;;5118759;28;20035;-81
2024/01/21 10:17:23;;;;;;;11.63;6.45;;;;;;;;;;5105734;28;20062;-82
2024/01/21 10:19:51;;;;;;;9.65;6.00;;;;;;;;;;5107473;28;20124;-81
2024/01/21 10:22:18;;;;;;;10.77;6.55;;;;;;;;;;5111084;28;20079;-82
2024/01/21 10:24:45;;;;;;;11.35;6.35;;;;;;;;;;5109331;28;20044;-82
2024/01/21 10:27:12;;;;;;;11.38;6.55;;;;;;;;;;5113000;28;21416;-81
2024/01/21 10:29:41;;;;;;;10.73;6.40;;;;;;;;;;5111115;28;20040;-81
2024/01/21 10:32:09;;;;;;;10.00;5.82;;;;;;;;;;5111430;28;20052;-82
2024/01/21 10:34:36;;;;;;;11.18;5.70;;;;;;;;;;5104738;28;20105;-81
2024/01/21 10:37:05;;;;;;;11.75;6.43;;;;;;;;;;5106888;28;20039;-82
2024/01/21 10:39:32;;;;;;;10.77;6.55;;;;;;;;;;5106075;28;20113;-81
2024/01/21 10:42:00;;;;;;;11.60;6.45;;;;;;;;;;5104376;28;20159;-82
2024/01/21 10:44:28;;;;;;;11.73;6.65;;;;;;;;;;5111847;28;20040;-82
2024/01/21 10:46:58;;;;;;;12.80;6.25;;;;;;;;;;5102511;28;20474;-81
2024/01/21 10:49:24;;;;;;;10.50;6.00;;;;;;;;;;5098195;28;20047;-80
2024/01/21 10:51:53;;;;;;;9.35;5.72;;;;;;;;;;5111673;28;20081;-80
2024/01/21 10:54:20;;;;;;;10.25;6.25;;;;;;;;;;5104757;28;20044;-81
2024/01/21 10:56:48;;;;;;;11.30;6.05;;;;;;;;;;5103693;28;20048;-80
2024/01/21 10:59:15;;;;;;;10.60;6.30;;;;;;;;;;5103314;28;20067;-81
2024/01/21 11:01:42;;;;;;;10.18;6.38;;;;;;;;;;5101171;28;20055;-80
2024/01/21 11:04:12;;;;;;;9.48;6.18;;;;;;;;;;5101935;28;20047;-80
2024/01/21 11:06:41;;;;;;;12.95;6.88;;;;;;;;;;5105034;28;20048;-80
2024/01/21 11:09:08;;;;;;;11.40;6.93;;;;;;;;;;5097645;28;20145;-80
2024/01/21 11:11:41;;;;;;;10.25;6.55;;;;;;;;;;5098889;28;20051;-80
2024/01/21 11:14:27;;;;;;;11.82;6.78;;;;;;;;;;5097699;28;20052;-81
2024/01/21 11:16:57;;;;;;;10.25;6.40;;;;;;;;;;5112686;28;20048;-81
2024/01/21 11:19:24;;;;;;;11.45;6.75;;;;;;;;;;5113738;28;20050;-81
2024/01/21 11:21:54;;;;;;;13.05;6.60;;;;;;;;;;5110151;28;20043;-80
2024/01/21 11:24:20;;;;;;;10.45;6.78;;;;;;;;;;5114985;28;20331;-81
2024/01/21 11:26:47;;;;;;;10.68;6.55;;;;;;;;;;5109321;28;20044;-81
2024/01/21 11:29:33;;;;;;;11.48;6.22;;;;;;;;;;5123183;28;20049;-81
2024/01/21 11:31:59;;;;;;;10.02;6.45;;;;;;;;;;5111215;28;20125;-79
2024/01/21 11:34:27;;;;;;;10.80;6.10;;;;;;;;;;5119143;28;20118;-80
2024/01/21 11:36:53;;;;;;;10.48;6.35;;;;;;;;;;5110849;28;20393;-79
2024/01/21 11:39:21;;;;;;;11.85;6.72;;;;;;;;;;5121637;28;20044;-80
2024/01/21 11:41:48;;;;;;;11.30;6.65;;;;;;;;;;5118378;28;20044;-80
2024/01/21 11:44:19;;;;;;;10.48;5.97;;;;;;;;;;5119643;28;20044;-80
2024/01/21 11:46:45;;;;;;;11.02;6.80;;;;;;;;;;5114565;28;20044;-80
2024/01/21 11:49:12;;;;;;;10.25;6.40;;;;;;;;;;5113752;28;20036;-80
2024/01/21 11:51:38;;;;;;;11.15;6.45;;;;;;;;;;5113929;28;20071;-80
2024/01/21 11:54:05;;;;;;;10.13;6.78;;;;;;;;;;5121521;28;20044;-80
2024/01/21 11:56:31;;;;;;;11.65;7.18;;;;;;;;;;5104656;28;20044;-81
2024/01/21 11:58:58;;;;;;;10.18;6.50;;;;;;;;;;5105988;28;20457;-80
2024/01/21 12:01:27;;;;;;;10.73;6.88;;;;;;;;;;5100808;28;20044;-80
2024/01/21 12:03:54;;;;;;;9.82;6.43;;;;;;;;;;5110304;28;20085;-80
2024/01/21 12:06:21;;;;;;;13.35;7.07;;;;;;;;;;5120685;28;20048;-80
2024/01/21 12:08:47;;;;;;;13.77;6.57;;;;;;;;;;5119018;28;20056;-80
2024/01/21 12:11:14;;;;;;;11.30;6.78;;;;;;;;;;5120927;28;20380;-81
2024/01/21 12:13:40;;;;;;;12.50;7.60;;;;;;;;;;5115745;28;20048;-81
2024/01/21 12:16:08;;;;;;;11.18;6.55;;;;;;;;;;5103398;28;20088;-81
2024/01/21 12:18:37;;;;;;;11.75;7.05;;;;;;;;;;5104317;28;20063;-80
2024/01/21 12:21:04;;;;;;;12.60;6.55;;;;;;;;;;5107498;28;20048;-80
2024/01/21 12:23:31;;;;;;;13.75;7.13;;;;;;;;;;5106835;28;21025;-80
2024/01/21 12:25:57;;;;;;;13.90;7.47;;;;;;;;;;5109450;28;20044;-80
2024/01/21 12:28:24;;;;;;;11.25;6.50;;;;;;;;;;5120194;28;20036;-80
2024/01/21 12:30:54;;;;;;;10.70;7.10;;;;;;;;;;5118916;28;20516;-80
2024/01/21 12:33:20;;;;;;;12.20;7.20;;;;;;;;;;5118159;28;20051;-80
2024/01/21 12:35:47;;;;;;;11.77;6.93;;;;;;;;;;5098361;28;20089;-80
2024/01/21 12:38:15;;;;;;;12.13;6.63;;;;;;;;;;5097928;28;20529;-81
2024/01/21 12:40:42;;;;;;;10.52;6.95;;;;;;;;;;5099349;28;20173;-80
2024/01/21 12:43:09;;;;;;;12.23;7.22;;;;;;;;;;5107129;28;20040;-80
2024/01/21 12:45:36;;;;;;;10.88;6.88;;;;;;;;;;5099458;28;20048;-80
2024/01/21 12:48:02;;;;;;;11.65;6.72;;;;;;;;;;5099432;28;20484;-79
2024/01/21 12:50:28;;;;;;;12.77;6.85;;;;;;;;;;5099149;28;20169;-79
2024/01/21 12:52:55;;;;;;;11.38;6.97;;;;;;;;;;5101862;28;20048;-80
2024/01/21 12:55:22;;;;;;;11.90;7.57;;;;;;;;;;5117645;28;20043;-79
2024/01/21 12:57:49;;;;;;;13.50;7.25;;;;;;;;;;5116914;28;20050;-80
2024/01/21 13:00:15;;;;;;;15.07;8.15;;;;;;;;;;5099235;28;20063;-79
2024/01/21 13:02:44;;;;;;;12.52;7.63;;;;;;;;;;5099115;28;20051;-80
2024/01/21 13:05:10;;;;;;;13.50;8.18;;;;;;;;;;5098839;28;20051;-80
2024/01/21 13:07:36;;;;;;;11.85;7.97;;;;;;;;;;5098920;28;20474;-80
2024/01/21 13:10:03;;;;;;;12.63;7.22;;;;;;;;;;5098618;28;20147;-79
2024/01/21 13:12:29;;;;;;;12.57;7.07;;;;;;;;;;5111199;28;20044;-79
2024/01/21 13:14:55;;;;;;;15.48;7.25;;;;;;;;;;5110483;28;20047;-79
2024/01/21 13:17:22;;;;;;;12.52;8.05;;;;;;;;;;5098194;28;20059;-80
2024/01/21 13:19:48;;;;;;;14.48;7.93;;;;;;;;;;5116647;28;20061;-79
2024/01/21 13:22:14;;;;;;;13.82;7.97;;;;;;;;;;5103556;28;20052;-79
2024/01/21 13:24:40;;;;;;;13.45;7.40;;;;;;;;;;5098963;28;20123;-80
2024/01/21 13:27:17;;;;;;;13.43;8.07;;;;;;;;;;5098964;28;20052;-79
2024/01/21 13:32:28;;;;;;;12.10;7.85;;;;;;;;;;5102468;28;20079;-80
2024/01/21 13:34:54;;;;;;;13.60;8.38;;;;;;;;;;5118222;28;20120;-79
2024/01/21 13:37:21;;;;;;;12.10;7.90;;;;;;;;;;5115826;28;20473;-80
2024/01/21 13:39:47;;;;;;;12.30;7.53;;;;;;;;;;5100732;28;20071;-80
2024/01/21 13:42:13;;;;;;;13.65;7.95;;;;;;;;;;5097423;28;20091;-80
2024/01/21 13:44:39;;;;;;;12.07;8.10;;;;;;;;;;5109523;28;20044;-80
2024/01/21 13:47:06;;;;;;;13.38;7.90;;;;;;;;;;5110332;28;20051;-80
2024/01/21 13:49:32;;;;;;;11.27;7.63;;;;;;;;;;5117702;28;20453;-80
2024/01/21 13:51:58;;;;;;;14.05;7.97;;;;;;;;;;5117635;28;20079;-79
2024/01/21 13:54:24;;;;;;;13.18;7.32;;;;;;;;;;5110210;28;20496;-80
2024/01/21 13:56:52;;;;;;;17.30;10.73;;;;;;;;;;5098244;28;20048;-80
2024/01/21 13:59:18;;;;;;;20.90;14.02;;;;;;;;;;5109500;28;20083;-81
2024/01/21 14:01:44;;;;;;;35.40;27.48;;;;;;;;;;5117741;28;20048;-80
2024/01/21 14:04:10;;;;;;;23.55;18.23;;;;;;;;;;5117215;28;20402;-80
2024/01/21 14:06:37;;;;;;;20.83;17.48;;;;;;;;;;5099229;28;20043;-80
2024/01/21 14:09:03;;;;;;;14.43;8.55;;;;;;;;;;5110426;28;20079;-80
2024/01/21 14:11:29;;;;;;;14.70;9.50;;;;;;;;;;5116855;28;20039;-80
2024/01/21 14:13:55;;;;;;;15.15;9.82;;;;;;;;;;5116887;28;20129;-80
2024/01/21 14:16:21;;;;;;;12.95;8.95;;;;;;;;;;5098069;28;20130;-80
2024/01/21 14:18:47;;;;;;;12.13;8.38;;;;;;;;;;5115972;28;20055;-81
2024/01/21 14:21:13;;;;;;;13.93;8.15;;;;;;;;;;5116221;28;20052;-79
2024/01/21 14:23:39;;;;;;;14.70;7.95;;;;;;;;;;5115972;28;20373;-80
2024/01/21 14:26:11;;;;;;;14.00;8.18;;;;;;;;;;5115949;28;20048;-79
2024/01/21 14:28:41;;;;;;;12.55;8.07;;;;;;;;;;5095363;28;20058;-81
2024/01/21 14:31:08;;;;;;;13.32;7.35;;;;;;;;;;5098411;28;20126;-80
2024/01/21 14:33:34;;;;;;;13.18;8.40;;;;;;;;;;5093089;28;20154;-80
2024/01/21 14:36:01;;;;;;;18.85;7.88;;;;;;;;;;5107311;28;20142;-80